Time;durP1;ratioP1;P1;durP2;ratioP2;P2;SDS_P1;SDS_P2;PMS_P1;PMS_P2;Temp;Humidity;BMP_temperature;BMP_pressure;BME280_temperature;BME280_humidity;BME280_pressure;Samples;Min_cycle;Max_cycle;Signal;HPM_P1;HPM_P2
2023/10/08 00:00:45;;;;;;;7.05;4.35;;;;;;;16.04;100.00;102113.75;5027636;28;20048;-65
2023/10/08 00:03:13;;;;;;;7.25;3.92;;;;;;;16.02;100.00;102121.56;5025307;28;20109;-63
2023/10/08 00:05:39;;;;;;;9.20;4.35;;;;;;;16.02;100.00;102126.78;5009387;28;20029;-64
2023/10/08 00:08:05;;;;;;;9.35;3.75;;;;;;;15.98;100.00;102130.09;5021764;28;20129;-64
2023/10/08 00:10:39;;;;;;;5.97;3.80;;;;;;;15.98;100.00;102135.34;5018400;28;20105;-64
2023/10/08 00:13:09;;;;;;;7.00;4.47;;;;;;;15.98;100.00;102132.72;5027476;28;20017;-64
2023/10/08 00:15:36;;;;;;;8.35;4.65;;;;;;;15.94;100.00;102118.66;5018064;28;20040;-63
2023/10/08 00:18:07;;;;;;;9.13;4.63;;;;;;;15.92;100.00;102124.72;5008976;28;20022;-63
2023/10/08 00:20:58;;;;;;;9.27;4.38;;;;;;;15.89;100.00;102128.09;5009171;28;20037;-64
2023/10/08 00:23:21;;;;;;;7.53;3.75;;;;;;;15.87;100.00;102126.28;4997311;28;20022;-64
2023/10/08 00:25:47;;;;;;;8.20;3.88;;;;;;;15.82;100.00;102139.22;5023376;28;20022;-63
2023/10/08 00:28:13;;;;;;;9.98;5.28;;;;;;;15.79;100.00;102137.41;5028283;28;20083;-63
2023/10/08 00:30:42;;;;;;;7.57;4.00;;;;;;;15.77;100.00;102141.69;5012988;28;20502;-64
2023/10/08 00:33:13;;;;;;;8.90;4.15;;;;;;;15.76;100.00;102137.28;5009427;28;20025;-64
2023/10/08 00:35:41;;;;;;;8.60;4.30;;;;;;;15.72;100.00;102138.06;5008457;28;20033;-64
2023/10/08 00:38:14;;;;;;;7.90;4.20;;;;;;;15.69;100.00;102137.94;5008846;28;20097;-64
2023/10/08 00:40:45;;;;;;;8.10;3.80;;;;;;;15.67;100.00;102140.50;5008828;28;20053;-64
2023/10/08 00:43:12;;;;;;;10.10;5.05;;;;;;;15.64;100.00;102134.28;5009778;28;20030;-64
2023/10/08 00:45:43;;;;;;;8.68;3.95;;;;;;;15.61;100.00;102135.97;5008971;28;20050;-64
2023/10/08 00:48:16;;;;;;;5.60;3.92;;;;;;;15.58;100.00;102135.88;5006906;28;20433;-63
2023/10/08 00:50:42;;;;;;;12.00;4.40;;;;;;;15.54;100.00;102143.56;5009125;28;20034;-64
2023/10/08 00:53:17;;;;;;;8.60;4.18;;;;;;;15.51;100.00;102146.97;5008595;28;20034;-63
2023/10/08 00:55:50;;;;;;;7.15;4.10;;;;;;;15.45;100.00;102150.25;4995688;28;20029;-64
2023/10/08 00:58:23;;;;;;;6.40;4.47;;;;;;;15.41;100.00;102152.72;5008702;28;20030;-63
2023/10/08 01:00:52;;;;;;;10.18;4.15;;;;;;;15.37;100.00;102136.06;5008603;28;20072;-64
2023/10/08 01:03:19;;;;;;;8.00;3.90;;;;;;;15.30;100.00;102140.22;5007555;28;20041;-64
2023/10/08 01:05:48;;;;;;;7.28;4.18;;;;;;;15.24;100.00;102145.22;5008450;28;20029;-63
2023/10/08 01:08:45;;;;;;;12.98;4.88;;;;;;;15.17;100.00;102138.00;5008191;28;20030;-64
2023/10/08 01:14:25;;;;;;;8.87;4.70;;;;;;;15.04;100.00;102123.69;5003758;28;20060;-63
2023/10/08 01:16:50;;;;;;;9.88;4.43;;;;;;;14.97;100.00;102119.94;5008031;28;20096;-63
2023/10/08 01:19:20;;;;;;;7.40;3.58;;;;;;;14.94;100.00;102130.28;5007950;28;20414;-63
2023/10/08 01:21:45;;;;;;;7.05;4.38;;;;;;;14.87;100.00;102119.66;5006662;28;20030;-64
2023/10/08 01:24:16;;;;;;;9.43;4.32;;;;;;;14.85;100.00;102125.66;5008131;28;20108;-64
2023/10/08 01:26:42;;;;;;;8.82;4.20;;;;;;;14.79;100.00;102122.81;5016588;28;20054;-64
2023/10/08 01:29:18;;;;;;;7.05;4.10;;;;;;;14.77;100.00;102133.16;5026246;28;20135;-63
2023/10/08 01:31:44;;;;;;;7.53;4.45;;;;;;;14.75;100.00;102113.97;5026962;28;20026;-63
2023/10/08 01:34:15;;;;;;;8.70;4.60;;;;;;;14.67;100.00;102104.97;5026444;28;20020;-63
2023/10/08 01:36:40;;;;;;;7.22;4.35;;;;;;;14.67;100.00;102113.69;5026988;28;20083;-63
2023/10/08 01:39:10;;;;;;;7.00;4.40;;;;;;;14.68;100.00;102106.78;5026373;28;20017;-63
2023/10/08 01:41:40;;;;;;;9.10;4.97;;;;;;;14.66;100.00;102093.66;5026829;28;20132;-63
2023/10/08 01:44:08;;;;;;;9.52;5.13;;;;;;;14.64;100.00;102090.13;5021908;28;20101;-63
2023/10/08 01:46:34;;;;;;;9.10;4.72;;;;;;;14.63;100.00;102093.53;5007831;28;20033;-64
2023/10/08 01:49:13;;;;;;;9.32;5.60;;;;;;;14.62;100.00;102108.34;5006936;28;20041;-65
2023/10/08 01:51:39;;;;;;;9.35;4.40;;;;;;;14.63;100.00;102117.91;5008071;28;20049;-64
2023/10/08 01:54:10;;;;;;;7.95;4.55;;;;;;;14.63;100.00;102115.31;5019795;28;20486;-63
2023/10/08 01:56:38;;;;;;;8.95;4.93;;;;;;;14.62;100.00;102107.44;5020337;28;20474;-64
2023/10/08 01:59:04;;;;;;;11.45;5.00;;;;;;;14.63;100.00;102127.47;5007711;28;20010;-64
2023/10/08 02:01:29;;;;;;;7.00;4.70;;;;;;;14.64;100.00;102129.25;5022324;28;20055;-64
2023/10/08 02:03:55;;;;;;;10.32;4.45;;;;;;;14.65;100.00;102137.13;5026510;28;20424;-64
2023/10/08 02:06:21;;;;;;;9.35;4.70;;;;;;;14.65;100.00;102137.13;5025939;28;20542;-64
2023/10/08 02:08:47;;;;;;;7.60;4.90;;;;;;;14.65;100.00;102142.34;5026172;28;20036;-64
2023/10/08 02:11:15;;;;;;;7.40;4.43;;;;;;;14.63;100.00;102136.19;5025783;28;20033;-63
2023/10/08 02:13:42;;;;;;;9.05;4.80;;;;;;;14.64;100.00;102142.28;5026457;28;20378;-63
2023/10/08 02:16:07;;;;;;;11.25;5.15;;;;;;;14.64;100.00;102134.47;5026893;28;20037;-64
2023/10/08 02:18:32;;;;;;;10.93;4.88;;;;;;;14.62;100.00;102139.63;5018521;28;20022;-65
2023/10/08 02:20:58;;;;;;;8.10;5.18;;;;;;;14.60;100.00;102125.66;5007259;28;20041;-63
2023/10/08 02:23:24;;;;;;;6.63;4.35;;;;;;;14.58;100.00;102127.31;5007145;28;20072;-64
2023/10/08 02:25:49;;;;;;;8.63;5.05;;;;;;;14.56;100.00;102123.75;5007256;28;20045;-65
2023/10/08 02:28:20;;;;;;;9.23;5.20;;;;;;;14.56;100.00;102128.06;5007527;28;20111;-63
2023/10/08 02:30:46;;;;;;;9.45;4.15;;;;;;;14.51;100.00;102125.31;5007299;28;20045;-64
2023/10/08 02:33:15;;;;;;;8.15;5.30;;;;;;;14.50;100.00;102128.72;5007334;28;20513;-64
2023/10/08 02:35:45;;;;;;;9.98;4.90;;;;;;;14.49;100.00;102138.28;5020251;28;20302;-64
2023/10/08 02:38:16;;;;;;;9.20;4.93;;;;;;;14.47;100.00;102136.44;5010339;28;20394;-64
2023/10/08 02:40:47;;;;;;;7.53;4.68;;;;;;;14.48;100.00;102135.63;5010612;28;20061;-62
2023/10/08 02:43:15;;;;;;;6.20;4.68;;;;;;;14.47;100.00;102133.84;5021896;28;20037;-63
2023/10/08 02:45:42;;;;;;;10.38;4.75;;;;;;;14.45;100.00;102141.63;5025508;28;20041;-64
2023/10/08 02:48:15;;;;;;;7.97;4.82;;;;;;;14.45;100.00;102143.31;5009278;28;20072;-65
2023/10/08 02:50:41;;;;;;;8.05;4.95;;;;;;;14.44;100.00;102154.59;5011868;28;20088;-64
2023/10/08 02:53:17;;;;;;;8.82;4.75;;;;;;;14.43;100.00;102148.50;5011210;28;20588;-64
2023/10/08 02:55:43;;;;;;;8.18;4.28;;;;;;;14.43;100.00;102158.06;4998950;28;20033;-63
2023/10/08 02:58:14;;;;;;;7.65;4.50;;;;;;;14.43;100.00;102163.28;5010377;28;20087;-63
2023/10/08 03:00:41;;;;;;;9.10;5.13;;;;;;;14.42;100.00;102167.59;5019339;28;20139;-64
2023/10/08 03:03:15;;;;;;;10.90;5.13;;;;;;;14.39;100.00;102152.69;5016801;28;20029;-64
2023/10/08 03:05:47;;;;;;;8.40;4.65;;;;;;;14.38;100.00;102150.94;5029188;28;20035;-63
2023/10/08 03:08:20;;;;;;;9.07;4.68;;;;;;;14.37;100.00;102154.34;5025795;28;20024;-63
2023/10/08 03:10:50;;;;;;;8.20;4.75;;;;;;;14.36;100.00;102152.59;5010795;28;20103;-63
2023/10/08 03:13:17;;;;;;;6.95;4.68;;;;;;;14.32;100.00;102160.25;5004411;28;20084;-63
2023/10/08 03:18:36;;;;;;;10.32;5.13;;;;;;;14.28;100.00;102156.66;5010551;28;20034;-64
2023/10/08 03:21:19;;;;;;;10.13;4.93;;;;;;;14.26;100.00;102160.91;5009245;28;20030;-64
2023/10/08 03:23:47;;;;;;;10.48;5.10;;;;;;;14.27;100.00;102167.88;5010505;28;20033;-64
2023/10/08 03:26:32;;;;;;;9.35;4.93;;;;;;;14.26;100.00;102171.34;5010238;28;20026;-64
2023/10/08 03:28:59;;;;;;;9.55;4.60;;;;;;;14.26;100.00;102176.56;5009701;28;20029;-64
2023/10/08 03:34:12;;;;;;;10.77;5.07;;;;;;;14.24;100.00;102178.19;5010150;28;20048;-63
2023/10/08 03:36:44;;;;;;;11.73;5.47;;;;;;;14.23;100.00;102166.00;5009600;28;20038;-64
2023/10/08 03:39:13;;;;;;;10.10;4.95;;;;;;;14.21;100.00;102167.66;5010037;28;20026;-63
2023/10/08 03:41:39;;;;;;;11.43;5.00;;;;;;;14.20;100.00;102160.66;5009964;28;20852;-64
2023/10/08 03:44:12;;;;;;;14.18;5.07;;;;;;;14.17;100.00;102164.91;5027634;28;20026;-63
2023/10/08 03:46:42;;;;;;;14.13;5.65;;;;;;;14.18;100.00;102173.63;5029125;28;20052;-63
2023/10/08 03:49:15;;;;;;;7.78;4.85;;;;;;;14.18;100.00;102171.03;5027833;28;20024;-63
2023/10/08 03:51:44;;;;;;;9.55;5.15;;;;;;;14.17;100.00;102177.94;5028556;28;20025;-63
2023/10/08 03:56:36;;;;;;;11.32;5.45;;;;;;;14.13;100.00;102168.25;5027790;28;20037;-63
2023/10/08 03:59:48;;;;;;;11.50;5.53;;;;;;;14.10;100.00;102175.97;5020708;28;20553;-64
2023/10/08 04:01:54;;;;;;;11.60;5.78;;;;;;;14.11;100.00;102172.53;5008102;28;20706;-63
2023/10/08 04:04:24;;;;;;;8.55;5.35;;;;;;;14.11;100.00;102188.16;5027989;28;20045;-63
2023/10/08 04:06:49;;;;;;;11.45;5.38;;;;;;;14.12;100.00;102179.50;5021742;28;20591;-64
2023/10/08 04:11:56;;;;;;;13.93;5.20;;;;;;;14.07;100.00;102173.22;5027618;28;20468;-64
2023/10/08 04:14:23;;;;;;;11.73;5.65;;;;;;;14.07;100.00;102173.22;5026316;28;20075;-63
2023/10/08 04:16:51;;;;;;;10.80;5.43;;;;;;;14.06;100.00;102168.84;5027816;28;20040;-64
2023/10/08 04:19:26;;;;;;;12.73;5.57;;;;;;;14.08;100.00;102175.03;5025775;28;20056;-64
2023/10/08 04:21:54;;;;;;;14.65;5.53;;;;;;;14.08;100.00;102193.25;5027664;28;20083;-64
2023/10/08 04:24:34;;;;;;;12.30;5.28;;;;;;;14.08;100.00;102193.25;5014250;28;20030;-64
2023/10/08 04:27:03;;;;;;;8.57;4.63;;;;;;;14.09;100.00;102184.59;5016176;28;20554;-64
2023/10/08 04:29:31;;;;;;;12.52;5.57;;;;;;;14.10;100.00;102190.72;5025188;28;20502;-63
2023/10/08 04:32:12;;;;;;;12.27;5.07;;;;;;;14.08;100.00;102188.06;5015546;28;20037;-64
2023/10/08 04:34:38;;;;;;;9.03;5.33;;;;;;;14.09;100.00;102188.91;5003436;28;20032;-63
2023/10/08 04:37:12;;;;;;;7.57;5.63;;;;;;;14.08;100.00;102192.38;5013150;28;20450;-64
2023/10/08 04:39:40;;;;;;;11.68;5.25;;;;;;;14.07;100.00;102195.81;5019116;28;20033;-63
2023/10/08 04:42:10;;;;;;;9.82;5.68;;;;;;;14.04;100.00;102196.56;5019925;28;20057;-63
2023/10/08 04:44:39;;;;;;;10.68;5.25;;;;;;;14.04;100.00;102207.00;5017500;28;20025;-64
2023/10/08 04:47:04;;;;;;;12.00;5.30;;;;;;;14.04;100.00;102209.59;5014548;28;20025;-64
2023/10/08 04:49:32;;;;;;;8.65;4.78;;;;;;;14.03;100.00;102215.66;5027349;28;20033;-64
2023/10/08 04:52:13;;;;;;;11.23;4.95;;;;;;;14.01;100.00;102212.97;5027160;28;20489;-63
2023/10/08 04:54:40;;;;;;;9.73;5.53;;;;;;;14.00;100.00;102220.72;5016707;28;20033;-63
2023/10/08 04:57:14;;;;;;;12.20;5.00;;;;;;;13.98;100.00;102217.16;5008055;28;20025;-63
2023/10/08 04:59:41;;;;;;;9.18;5.00;;;;;;;13.93;100.00;102219.59;5008039;28;20595;-63
2023/10/08 05:07:21;;;;;;;12.85;5.43;;;;;;;13.74;100.00;102218.88;5008023;28;20030;-64
2023/10/08 05:12:50;;;;;;;9.50;4.85;;;;;;;13.64;100.00;102232.31;5008358;28;20082;-63
2023/10/08 05:20:40;;;;;;;9.48;5.68;;;;;;;13.52;100.00;102230.06;5007367;28;20037;-64
2023/10/08 05:25:58;;;;;;;9.93;4.78;;;;;;;13.44;100.00;102229.72;5005386;28;20474;-64
2023/10/08 05:28:26;;;;;;;9.73;4.85;;;;;;;13.40;100.00;102223.50;4994484;28;20030;-63
2023/10/08 05:31:11;;;;;;;6.68;4.78;;;;;;;13.37;100.00;102231.19;4992312;28;20505;-63
2023/10/08 05:36:18;;;;;;;11.10;5.20;;;;;;;13.36;100.00;102247.66;4986194;28;20146;-64
2023/10/08 05:38:59;;;;;;;14.52;6.18;;;;;;;13.36;100.00;102247.66;4989743;28;20021;-63
2023/10/08 05:41:51;;;;;;;;;;;;;;;13.38;100.00;102261.63;4997549;28;20173;-63
2023/10/08 06:13:29;;;;;;;12.43;6.30;;;;;;;13.31;100.00;102218.78;5008157;28;20176;-64
2023/10/08 06:18:27;;;;;;;10.10;5.97;;;;;;;13.37;100.00;102238.09;4999012;28;20034;-64
2023/10/08 06:21:00;;;;;;;10.18;6.35;;;;;;;13.39;100.00;102246.88;5009330;28;20153;-63
2023/10/08 06:23:28;;;;;;;10.82;6.72;;;;;;;13.42;100.00;102236.59;5007753;28;20036;-63
2023/10/08 06:25:56;;;;;;;12.55;6.35;;;;;;;13.44;100.00;102251.44;4999312;28;20030;-64
2023/10/08 06:28:25;;;;;;;10.15;6.10;;;;;;;13.47;100.00;102247.22;5008620;28;20026;-63
2023/10/08 06:30:53;;;;;;;9.25;5.47;;;;;;;13.50;100.00;102249.94;5008281;28;20021;-63
2023/10/08 06:33:24;;;;;;;12.93;6.78;;;;;;;13.53;100.00;102258.78;5000320;28;20022;-62
2023/10/08 06:36:02;;;;;;;12.60;7.03;;;;;;;13.54;100.00;102254.50;5004379;28;20037;-64
2023/10/08 06:38:32;;;;;;;11.93;6.18;;;;;;;13.55;100.00;102246.72;5001654;28;20439;-64
2023/10/08 06:44:17;;;;;;;12.38;6.30;;;;;;;13.55;100.00;102245.84;5006272;28;20480;-64
2023/10/08 06:46:42;;;;;;;14.63;6.35;;;;;;;13.55;100.00;102248.44;5005866;28;20042;-64
2023/10/08 06:49:12;;;;;;;8.95;6.13;;;;;;;13.54;100.00;102242.38;5008155;28;20034;-63
2023/10/08 06:51:39;;;;;;;11.18;6.75;;;;;;;13.52;100.00;102253.50;4999055;28;20182;-64
2023/10/08 06:54:09;;;;;;;10.45;6.30;;;;;;;13.55;100.00;102264.06;5004250;28;20739;-63
2023/10/08 06:56:35;;;;;;;11.40;6.20;;;;;;;13.58;100.00;102264.22;5000637;28;20030;-63
2023/10/08 06:59:01;;;;;;;10.73;6.53;;;;;;;13.59;100.00;102273.81;5008670;28;20064;-64
2023/10/08 07:01:38;;;;;;;18.35;6.40;;;;;;;13.61;100.00;102279.06;5008137;28;20038;-64
2023/10/08 07:04:11;;;;;;;10.90;5.70;;;;;;;13.63;100.00;102286.13;5007943;28;20496;-64
2023/10/08 07:06:40;;;;;;;10.10;6.53;;;;;;;13.66;100.00;102295.78;5008342;28;20076;-64
2023/10/08 07:09:23;;;;;;;11.07;6.95;;;;;;;13.68;100.00;102297.63;5007369;28;20030;-63
2023/10/08 07:11:54;;;;;;;12.00;6.50;;;;;;;13.71;100.00;102296.00;5007726;28;20052;-63
2023/10/08 07:14:27;;;;;;;15.18;6.80;;;;;;;13.73;100.00;102294.31;5007628;28;20437;-63
2023/10/08 07:17:00;;;;;;;10.25;6.30;;;;;;;13.77;100.00;102296.22;5001322;28;20546;-63
2023/10/08 07:19:37;;;;;;;13.73;6.97;;;;;;;13.84;100.00;102298.28;5006600;28;20029;-63
2023/10/08 07:22:17;;;;;;;14.02;7.28;;;;;;;13.89;100.00;102296.75;5010468;28;20374;-64
2023/10/08 07:24:45;;;;;;;14.40;7.55;;;;;;;13.96;100.00;102291.81;5010093;28;20018;-64
2023/10/08 07:27:11;;;;;;;13.05;7.88;;;;;;;14.01;100.00;102300.69;5010147;28;20033;-63
2023/10/08 07:29:37;;;;;;;12.05;7.65;;;;;;;14.06;100.00;102301.78;5010013;28;20462;-64
2023/10/08 07:32:09;;;;;;;14.25;7.53;;;;;;;14.09;100.00;102288.84;5010191;28;20026;-63
2023/10/08 07:34:36;;;;;;;12.63;6.95;;;;;;;14.11;100.00;102300.25;5010881;28;20033;-63
2023/10/08 07:37:01;;;;;;;10.73;7.43;;;;;;;14.13;100.00;102305.50;5010764;28;20157;-64
2023/10/08 07:41:59;;;;;;;;;;;;;;;14.21;100.00;102311.03;5010879;28;20054;-63
2023/10/08 07:44:28;;;;;;;13.77;8.20;;;;;;;14.26;100.00;102312.13;5029158;28;20021;-63
2023/10/08 07:46:57;;;;;;;11.77;7.18;;;;;;;14.29;100.00;102314.84;5028785;28;20033;-63
2023/10/08 07:49:25;;;;;;;16.38;8.32;;;;;;;14.34;100.00;102318.53;5019180;28;20026;-63
2023/10/08 07:51:50;;;;;;;14.52;8.45;;;;;;;14.37;100.00;102313.41;5019638;28;20042;-64
2023/10/08 07:54:24;;;;;;;13.50;7.78;;;;;;;14.40;100.00;102310.97;5013272;28;20087;-63
2023/10/08 07:56:57;;;;;;;13.52;8.38;;;;;;;14.43;100.00;102312.78;5010061;28;20092;-63
2023/10/08 07:59:22;;;;;;;16.95;9.32;;;;;;;14.47;100.00;102298.13;5015574;28;20033;-63
2023/10/08 08:01:48;;;;;;;11.00;7.88;;;;;;;14.50;100.00;102311.28;5012663;28;20448;-64
2023/10/08 08:04:22;;;;;;;11.95;8.65;;;;;;;14.54;100.00;102315.81;5013847;28;20470;-64
2023/10/08 08:06:51;;;;;;;13.68;8.57;;;;;;;14.57;100.00;102312.44;5008661;28;20371;-63
2023/10/08 08:09:19;;;;;;;13.23;8.75;;;;;;;14.60;100.00;102323.00;5009150;28;20042;-63
2023/10/08 08:11:48;;;;;;;13.90;8.70;;;;;;;14.63;100.00;102337.03;5014800;28;20025;-64
2023/10/08 08:14:16;;;;;;;17.77;9.88;;;;;;;14.68;100.00;102347.66;5008454;28;20800;-63
2023/10/08 08:16:46;;;;;;;14.35;9.63;;;;;;;14.69;100.00;102353.75;5020749;28;20428;-63
2023/10/08 08:19:12;;;;;;;14.55;10.73;;;;;;;14.71;100.00;102349.50;5014684;28;20040;-64
2023/10/08 08:21:38;;;;;;;12.85;11.20;;;;;;;14.72;100.00;102361.69;5024936;28;20466;-63
2023/10/08 08:24:06;;;;;;;21.85;12.23;;;;;;;14.72;100.00;102357.38;5014826;28;20052;-63
2023/10/08 08:26:40;;;;;;;17.55;12.48;;;;;;;14.71;100.00;102367.75;5025842;28;20033;-64
2023/10/08 08:29:08;;;;;;;15.30;12.40;;;;;;;14.72;100.00;102372.13;5026274;28;20025;-63
2023/10/08 08:31:35;;;;;;;15.60;11.52;;;;;;;14.74;100.00;102379.22;5027739;28;20103;-64
2023/10/08 08:34:03;;;;;;;15.40;11.00;;;;;;;14.76;100.00;102376.66;5015564;28;20040;-64
2023/10/08 08:36:30;;;;;;;16.38;11.07;;;;;;;14.81;100.00;102380.38;5011786;28;20029;-63
2023/10/08 08:38:55;;;;;;;18.55;11.05;;;;;;;14.85;100.00;102371.84;5008914;28;20028;-64
2023/10/08 08:41:22;;;;;;;18.42;12.20;;;;;;;14.93;100.00;102381.69;5007480;28;20414;-65
2023/10/08 08:43:56;;;;;;;17.17;11.85;;;;;;;15.04;100.00;102382.97;5006800;28;20033;-65
2023/10/08 08:46:27;;;;;;;17.50;12.00;;;;;;;15.17;100.00;102383.41;5017793;28;20552;-64
2023/10/08 08:48:53;;;;;;;24.85;12.10;;;;;;;15.28;100.00;102387.34;5008826;28;20026;-64
2023/10/08 08:51:22;;;;;;;26.52;14.23;;;;;;;15.43;100.00;102387.03;5006670;28;20045;-63
2023/10/08 08:53:47;;;;;;;21.23;12.73;;;;;;;15.54;100.00;102390.00;5007927;28;20044;-64
2023/10/08 08:56:13;;;;;;;24.23;13.63;;;;;;;15.70;100.00;102385.34;5007565;28;20030;-63
2023/10/08 08:58:38;;;;;;;27.42;14.30;;;;;;;15.79;100.00;102387.38;5007504;28;20093;-64
2023/10/08 09:01:09;;;;;;;22.20;14.35;;;;;;;15.88;100.00;102392.03;5018229;28;20029;-64
2023/10/08 09:03:34;;;;;;;24.58;14.32;;;;;;;15.93;100.00;102386.16;5027599;28;20037;-64
2023/10/08 09:06:00;;;;;;;25.15;14.43;;;;;;;15.97;100.00;102389.75;5027553;28;20469;-63
2023/10/08 09:08:33;;;;;;;33.40;15.50;;;;;;;16.00;100.00;102392.50;5013842;28;20025;-64
2023/10/08 09:11:00;;;;;;;29.23;14.15;;;;;;;16.00;100.00;102388.97;5027507;28;20044;-65
2023/10/08 09:13:27;;;;;;;23.77;14.35;;;;;;;16.04;100.00;102398.72;5027352;28;20094;-64
2023/10/08 09:15:57;;;;;;;22.55;14.50;;;;;;;16.07;100.00;102402.34;5026990;28;20021;-64
2023/10/08 09:18:24;;;;;;;20.35;14.55;;;;;;;16.13;100.00;102403.38;5002888;28;20064;-63
2023/10/08 09:20:49;;;;;;;21.27;14.60;;;;;;;16.14;100.00;102402.53;5027329;28;20112;-63
2023/10/08 09:23:17;;;;;;;19.35;13.85;;;;;;;16.18;100.00;102407.03;5027679;28;20123;-63
2023/10/08 09:25:45;;;;;;;22.00;14.50;;;;;;;16.24;100.00;102395.88;5025426;28;20025;-65
2023/10/08 09:28:14;;;;;;;24.00;14.95;;;;;;;16.31;100.00;102406.63;5027089;28;20052;-64
2023/10/08 09:30:40;;;;;;;28.98;16.33;;;;;;;16.40;100.00;102406.03;5013606;28;20037;-63
2023/10/08 09:33:07;;;;;;;22.27;15.80;;;;;;;16.46;100.00;102418.38;5026805;28;20039;-64
2023/10/08 09:35:33;;;;;;;24.15;15.63;;;;;;;16.48;100.00;102406.25;5026545;28;20445;-63
2023/10/08 09:38:02;;;;;;;22.88;17.20;;;;;;;16.51;100.00;102405.47;5027551;28;20382;-63
2023/10/08 09:40:28;;;;;;;20.55;16.27;;;;;;;16.56;100.00;102407.41;5026317;28;20088;-64
2023/10/08 09:42:54;;;;;;;21.35;16.52;;;;;;;16.63;100.00;102407.59;5018556;28;20069;-64
2023/10/08 09:45:21;;;;;;;22.05;17.08;;;;;;;16.71;100.00;102408.75;5022330;28;20487;-64
2023/10/08 09:47:53;;;;;;;27.02;17.92;;;;;;;16.80;100.00;102406.38;5017756;28;20026;-63
2023/10/08 09:50:24;;;;;;;23.15;16.95;;;;;;;16.92;100.00;102399.75;5007449;28;20044;-64
2023/10/08 09:53:16;;;;;;;29.92;16.85;;;;;;;16.99;100.00;102396.50;5018024;28;20022;-63
2023/10/08 09:55:51;;;;;;;26.92;17.77;;;;;;;17.05;100.00;102396.66;4993209;28;20030;-64
2023/10/08 09:58:17;;;;;;;28.58;16.35;;;;;;;17.05;100.00;102391.41;5008748;28;20010;-63
2023/10/08 10:00:44;;;;;;;29.65;17.20;;;;;;;17.03;100.00;102393.13;5019361;28;20504;-64
2023/10/08 10:03:12;;;;;;;26.83;18.42;;;;;;;17.02;100.00;102386.09;5007157;28;20026;-64
2023/10/08 10:05:38;;;;;;;27.80;17.42;;;;;;;17.04;100.00;102389.66;5007321;28;20041;-65
2023/10/08 10:08:09;;;;;;;26.30;16.10;;;;;;;17.07;100.00;102377.50;5007166;28;20433;-63
2023/10/08 10:10:38;;;;;;;30.45;16.98;;;;;;;17.01;100.00;102373.84;5007846;28;20038;-64
2023/10/08 10:13:09;;;;;;;34.22;18.35;;;;;;;16.98;100.00;102378.97;5007365;28;20033;-66
2023/10/08 10:15:37;;;;;;;28.88;17.35;;;;;;;17.02;100.00;102374.72;5018207;28;20560;-64
2023/10/08 10:18:19;;;;;;;35.45;18.65;;;;;;;17.05;100.00;102385.31;5025591;28;20020;-64
2023/10/08 10:20:51;;;;;;;36.47;19.92;;;;;;;17.02;100.00;102390.44;5027425;28;20478;-64
2023/10/08 10:23:44;;;;;;;34.65;18.92;;;;;;;16.97;100.00;102397.25;4995702;28;20022;-66
2023/10/08 10:26:33;;;;;;;31.08;18.23;;;;;;;16.94;100.00;102398.09;5025668;28;20598;-65
2023/10/08 10:29:10;;;;;;;25.92;16.73;;;;;;;16.96;100.00;102398.13;5026957;28;20025;-64
2023/10/08 10:31:44;;;;;;;25.17;16.33;;;;;;;16.93;100.00;102385.81;5018571;28;20359;-65
2023/10/08 10:34:12;;;;;;;27.92;17.13;;;;;;;16.88;100.00;102377.84;5020333;28;20076;-63
2023/10/08 10:36:39;;;;;;;30.85;16.80;;;;;;;16.85;100.00;102383.00;5007319;28;20021;-64
2023/10/08 10:39:26;;;;;;;35.42;16.40;;;;;;;16.69;100.00;102387.72;5007192;28;20026;-65
2023/10/08 10:41:57;;;;;;;32.70;15.20;;;;;;;16.69;100.00;102392.09;5006654;28;20455;-64
2023/10/08 10:44:23;;;;;;;;;;;;;;;16.68;100.00;102385.06;5027065;28;20037;-64
2023/10/08 10:46:51;;;;;;;29.75;15.30;;;;;;;16.66;100.00;102400.72;5026389;28;19971;-64
2023/10/08 10:49:31;;;;;;;29.70;15.55;;;;;;;16.58;100.00;102407.44;5026564;28;20028;-64
2023/10/08 10:51:57;;;;;;;28.25;13.90;;;;;;;16.59;100.00;102416.16;5023079;28;20050;-63
2023/10/08 10:54:23;;;;;;;32.28;16.45;;;;;;;16.58;100.00;102398.72;5016637;28;20060;-64
2023/10/08 10:57:03;;;;;;;27.77;14.93;;;;;;;16.51;100.00;102402.88;5025025;28;20540;-64
2023/10/08 10:59:38;;;;;;;32.67;14.52;;;;;;;16.46;100.00;102407.94;5029494;28;20083;-64
2023/10/08 11:02:30;;;;;;;24.20;14.50;;;;;;;16.42;100.00;102411.31;5028630;28;20017;-64
2023/10/08 11:05:07;;;;;;;21.08;14.63;;;;;;;16.43;100.00;102410.44;5028162;28;20052;-64
2023/10/08 11:07:34;;;;;;;24.08;15.10;;;;;;;16.45;100.00;102403.53;5029200;28;20048;-63
2023/10/08 11:10:00;;;;;;;22.05;13.88;;;;;;;16.42;100.00;102413.91;5028032;28;20036;-63
2023/10/08 11:12:42;;;;;;;21.13;14.18;;;;;;;16.36;100.00;102413.69;5029698;28;20101;-63
2023/10/08 11:15:15;;;;;;;22.13;13.68;;;;;;;16.39;100.00;102416.41;5029543;28;20025;-63
2023/10/08 11:17:40;;;;;;;21.55;13.13;;;;;;;16.41;100.00;102409.50;5028983;28;20033;-65
2023/10/08 11:20:29;;;;;;;21.70;14.57;;;;;;;16.42;100.00;102404.31;5029534;28;20190;-63
2023/10/08 11:22:55;;;;;;;22.20;14.18;;;;;;;16.44;100.00;102409.63;5016773;28;20080;-63
2023/10/08 11:25:30;;;;;;;20.42;13.88;;;;;;;16.44;100.00;102407.00;5028667;28;20061;-64
2023/10/08 11:28:01;;;;;;;19.17;13.05;;;;;;;16.47;100.00;102407.09;5023019;28;20458;-63
2023/10/08 11:30:31;;;;;;;19.65;13.40;;;;;;;16.49;100.00;102405.44;5022702;28;20090;-64
2023/10/08 11:32:59;;;;;;;18.88;12.68;;;;;;;16.50;100.00;102401.97;5004351;28;20035;-64
2023/10/08 11:35:27;;;;;;;16.27;11.90;;;;;;;16.45;100.00;102398.31;5027571;28;20385;-64
2023/10/08 11:37:58;;;;;;;19.63;12.95;;;;;;;16.49;100.00;102397.59;5029021;28;20454;-64
2023/10/08 11:40:48;;;;;;;18.65;12.50;;;;;;;16.51;100.00;102390.69;5012629;28;20482;-64
2023/10/08 11:43:15;;;;;;;20.60;13.27;;;;;;;16.46;100.00;102399.22;5021397;28;20151;-64
2023/10/08 11:45:48;;;;;;;20.77;13.57;;;;;;;16.40;100.00;102394.66;5029058;28;20033;-64
2023/10/08 11:48:28;;;;;;;17.75;12.32;;;;;;;16.37;100.00;102397.19;5028654;28;20488;-63
2023/10/08 11:50:57;;;;;;;22.25;12.63;;;;;;;16.40;100.00;102397.28;5005460;28;20017;-63
2023/10/08 11:53:24;;;;;;;16.67;11.82;;;;;;;16.38;100.00;102398.94;5027470;28;20033;-63
2023/10/08 11:55:54;;;;;;;18.92;11.20;;;;;;;16.36;100.00;102387.53;5018287;28;20481;-63
2023/10/08 11:58:20;;;;;;;16.08;10.35;;;;;;;16.28;100.00;102388.19;5027502;28;21134;-64
2023/10/08 12:00:46;;;;;;;16.00;11.45;;;;;;;16.24;100.00;102380.19;5028591;28;20041;-64
2023/10/08 12:03:12;;;;;;;16.05;10.05;;;;;;;16.24;100.00;102374.97;5025731;28;20734;-63
2023/10/08 12:05:47;;;;;;;13.80;9.70;;;;;;;16.25;100.00;102372.41;5018554;28;20470;-64
2023/10/08 12:08:14;;;;;;;14.45;10.20;;;;;;;16.27;100.00;102367.22;5029078;28;20017;-63
2023/10/08 12:10:40;;;;;;;15.88;10.48;;;;;;;16.33;100.00;102367.44;5028030;28;20017;-64
2023/10/08 12:13:06;;;;;;;14.82;10.02;;;;;;;16.33;100.00;102357.84;5028943;28;20017;-64
2023/10/08 12:15:34;;;;;;;17.77;12.10;;;;;;;16.40;100.00;102358.94;5029004;28;20358;-63
2023/10/08 12:18:11;;;;;;;15.93;11.55;;;;;;;16.40;100.00;102368.50;5011203;28;20022;-63
2023/10/08 12:20:43;;;;;;;17.30;10.82;;;;;;;16.47;100.00;102360.00;5009282;28;20108;-65
2023/10/08 12:23:10;;;;;;;16.27;10.90;;;;;;;16.52;100.00;102355.81;5009447;28;20381;-64
2023/10/08 12:25:37;;;;;;;16.23;11.55;;;;;;;16.49;100.00;102358.34;5009281;28;20022;-64
2023/10/08 12:28:04;;;;;;;21.17;11.68;;;;;;;16.56;100.00;102352.47;4996587;28;20533;-64
2023/10/08 12:30:40;;;;;;;17.52;12.02;;;;;;;16.62;100.00;102353.50;5021768;28;20385;-64
2023/10/08 12:33:06;;;;;;;16.98;11.90;;;;;;;16.71;100.00;102360.72;5028907;28;20425;-64